»·PEaware :: N165PS KTNP-KSAN

N165PS :: KTNP-KSAN

FLIGHT INFORMATION

Flight Status: Arrived
Operator: Privately registered:
United States
More flights under this callsign
Pilot: Philip A. (19141)
Aircraft: BEECH AIRCRAFT BARON
(BE58)
More flights by this aircraft type
Origin: KTNP Twentynine Palms
United States
Destination: KSAN San Diego Intl-Lindbergh
United States
More flights between these airports :: More routes between these airports
Route: +V514 MZB
File this flight plan on PilotEdge
Remarks:
Altitude:
(Current/Filed)
10,000ft
Speed:
(Current/Filed)
180kts
Departed: 01-Aug-18 03:39 PM
Arrived: 01-Aug-18 04:22 PM
Distance/Time
Traveled:
104nm/0:43
Distance/Time
To Go:
Arrived

Flight Plot

Page will automatically refresh every two minutes.

Flight plan parsing failed; only flown route is shown


Map Options




Map Legend


Flown Route
Filed Route
Departure Airport
Arrival Airport
Navaid (VOR, NDB)
Fix

Horizontal Profiles

Position Reports

Time Latitude Longitude Heading Altitude Ground
Speed
01-Aug-18 15:34 34.136065 -115.944724 268 1879ft 0kts
01-Aug-18 15:35 34.136065 -115.944724 268 1879ft 0kts
01-Aug-18 15:36 34.136065 -115.944724 268 1879ft 0kts
01-Aug-18 15:37 34.135926 -115.945002 177 1880ft 1kts
01-Aug-18 15:38 34.135150 -115.947320 212 1886ft 7kts
01-Aug-18 15:39 34.133451 -115.947538 225 1888ft 0kts
01-Aug-18 15:40 34.130844 -115.948000 180 1888ft 66kts
01-Aug-18 15:41 34.103532 -115.944688 156 3026ft 106kts
01-Aug-18 15:42 34.076775 -115.929461 161 4403ft 109kts
01-Aug-18 15:43 34.047570 -115.919485 169 5667ft 112kts
01-Aug-18 15:44 34.016335 -115.922277 195 6823ft 117kts
01-Aug-18 15:45 33.986124 -115.936993 203 7861ft 122kts
01-Aug-18 15:46 33.955850 -115.955247 196 8815ft 124kts
01-Aug-18 15:47 33.922896 -115.967400 196 9714ft 125kts
01-Aug-18 15:48 33.887397 -115.983177 198 10061ft 152kts
01-Aug-18 15:49 33.845055 -116.001067 198 10088ft 174kts
01-Aug-18 15:50 33.799800 -116.024655 211 9933ft 184kts
01-Aug-18 15:51 33.757166 -116.058959 212 9731ft 186kts
01-Aug-18 15:52 33.714581 -116.094062 210 9538ft 186kts
01-Aug-18 15:53 33.670573 -116.126690 211 9358ft 186kts
01-Aug-18 15:54 33.627303 -116.160572 213 9184ft 186kts
01-Aug-18 15:55 33.584969 -116.196454 213 9018ft 186kts
01-Aug-18 15:56 33.542519 -116.232290 213 8857ft 187kts
01-Aug-18 15:57 33.500011 -116.268081 213 8702ft 187kts
01-Aug-18 15:58 33.458718 -116.302824 213 8557ft 187kts
01-Aug-18 15:59 33.416529 -116.338286 213 8413ft 187kts
01-Aug-18 16:00 33.375394 -116.376400 218 8265ft 188kts
01-Aug-18 16:01 33.334587 -116.415168 215 8131ft 187kts
01-Aug-18 16:02 33.295238 -116.450532 214 8580ft 168kts
01-Aug-18 16:03 33.257737 -116.483496 213 9033ft 166kts
01-Aug-18 16:04 33.220328 -116.516206 213 9452ft 167kts
01-Aug-18 16:05 33.183917 -116.548015 215 9904ft 159kts
01-Aug-18 16:06 33.147201 -116.580026 215 10018ft 170kts
01-Aug-18 16:07 33.103527 -116.599767 191 10025ft 171kts
01-Aug-18 16:08 33.057095 -116.611102 191 10025ft 171kts
01-Aug-18 16:09 33.010146 -116.623624 201 9875ft 181kts
01-Aug-18 16:10 32.966720 -116.656627 211 9545ft 195kts
01-Aug-18 16:11 32.921066 -116.692243 210 9225ft 195kts
01-Aug-18 16:12 32.876632 -116.727322 211 8800ft 195kts
01-Aug-18 16:13 32.830760 -116.763296 211 8163ft 199kts
01-Aug-18 16:14 32.784635 -116.799702 211 7455ft 202kts
01-Aug-18 16:15 32.737230 -116.835980 211 6557ft 202kts
01-Aug-18 16:16 32.690724 -116.871654 232 5655ft 201kts
01-Aug-18 16:17 32.673683 -116.932809 274 4791ft 201kts
01-Aug-18 16:18 32.683320 -116.994943 286 3993ft 196kts
01-Aug-18 16:19 32.697571 -117.051102 288 3216ft 150kts
01-Aug-18 16:20 32.708637 -117.092141 291 1999ft 120kts
01-Aug-18 16:21 32.718333 -117.127504 283 1284ft 112kts
01-Aug-18 16:22 32.726083 -117.159275 286 517ft 96kts
01-Aug-18 16:23 32.732069 -117.183543 288 18ft 19kts
01-Aug-18 16:24 32.733933 -117.185886 317 18ft 10kts
01-Aug-18 16:25 32.734655 -117.186659 7 18ft 0kts

Navigation Log

Ident Type
Flight plan parsing failed, navigation log unavailable